createdAt,value
2018-07-03T00:00:39.569Z,21.31
2018-07-03T00:03:08.253Z,21.15
2018-07-03T00:05:36.729Z,20.87
2018-07-03T00:08:05.166Z,20.82
2018-07-03T00:10:33.729Z,20.82
2018-07-03T00:13:02.156Z,20.79
2018-07-03T00:15:30.826Z,20.79
2018-07-03T00:17:59.419Z,20.77
2018-07-03T00:20:27.953Z,20.72
2018-07-03T00:23:03.421Z,20.69
2018-07-03T00:25:31.984Z,20.66
2018-07-03T00:28:00.784Z,20.63
2018-07-03T00:30:29.483Z,20.54
2018-07-03T00:32:57.961Z,20.49
2018-07-03T00:35:26.499Z,20.41
2018-07-03T00:37:55.068Z,20.39
2018-07-03T00:40:23.532Z,20.46
2018-07-03T00:42:52.295Z,20.43
2018-07-03T00:45:20.697Z,20.45
2018-07-03T00:47:49.189Z,20.38
2018-07-03T00:50:17.663Z,20.20
2018-07-03T00:52:46.231Z,20.16
2018-07-03T00:55:14.860Z,20.07
2018-07-03T00:57:43.279Z,20.08
2018-07-03T01:00:31.459Z,20.07
2018-07-03T01:03:00.616Z,20.09
2018-07-03T01:05:29.252Z,19.99
2018-07-03T01:07:58.158Z,19.80
2018-07-03T01:10:27.018Z,19.78
2018-07-03T01:12:56.228Z,19.75
2018-07-03T01:15:25.913Z,19.66
2018-07-03T01:17:54.512Z,19.59
2018-07-03T01:20:22.928Z,19.42
2018-07-03T01:22:51.781Z,19.32
2018-07-03T01:25:20.368Z,19.24
2018-07-03T01:27:48.976Z,19.21
2018-07-03T01:30:17.231Z,19.19
2018-07-03T01:32:45.887Z,19.24
2018-07-03T01:35:14.323Z,19.28
2018-07-03T01:37:42.743Z,19.30
2018-07-03T01:40:11.525Z,19.24
2018-07-03T01:42:40.132Z,19.15
2018-07-03T01:45:08.805Z,19.21
2018-07-03T01:47:37.414Z,19.20
2018-07-03T01:50:06.410Z,19.15
2018-07-03T01:52:34.974Z,19.13
2018-07-03T01:55:03.499Z,19.19
2018-07-03T01:57:31.769Z,19.21
2018-07-03T02:00:00.360Z,19.14
2018-07-03T02:02:28.758Z,19.15
2018-07-03T02:04:57.181Z,19.09
2018-07-03T02:07:25.748Z,19.10
2018-07-03T02:09:54.248Z,18.88
2018-07-03T02:12:22.916Z,18.92
2018-07-03T02:14:51.384Z,18.87
2018-07-03T02:17:20.043Z,18.80
2018-07-03T02:19:48.665Z,18.69
2018-07-03T02:22:17.086Z,18.78
2018-07-03T02:24:45.411Z,18.72
2018-07-03T02:27:14.065Z,18.69
2018-07-03T02:29:42.862Z,18.74
2018-07-03T02:32:11.313Z,18.70
2018-07-03T02:34:39.937Z,18.68
2018-07-03T02:37:08.462Z,18.79
2018-07-03T02:39:37.158Z,18.75
2018-07-03T02:42:05.985Z,18.64
2018-07-03T02:44:34.477Z,18.66
2018-07-03T02:47:02.905Z,18.70
2018-07-03T02:49:31.392Z,18.57
2018-07-03T02:52:00.005Z,18.47
2018-07-03T02:54:28.604Z,18.35
2018-07-03T02:56:57.156Z,18.44
2018-07-03T02:59:25.597Z,18.33
2018-07-03T03:01:54.236Z,18.41
2018-07-03T03:04:22.702Z,18.34
2018-07-03T03:06:51.107Z,18.42
2018-07-03T03:09:19.616Z,18.46
2018-07-03T03:11:48.340Z,18.43
2018-07-03T03:14:16.974Z,18.40
2018-07-03T03:16:45.328Z,18.30
2018-07-03T03:19:13.824Z,18.37
2018-07-03T03:21:42.388Z,18.26
2018-07-03T03:24:11.168Z,18.23
2018-07-03T03:26:39.770Z,18.29
2018-07-03T03:29:08.136Z,18.23
2018-07-03T03:31:36.854Z,18.28
2018-07-03T03:34:05.811Z,18.21
2018-07-03T03:36:34.222Z,18.26
2018-07-03T03:39:03.899Z,18.17
2018-07-03T03:41:32.378Z,18.17
2018-07-03T03:44:00.812Z,17.98
2018-07-03T03:46:29.550Z,18.02
2018-07-03T03:48:57.933Z,18.48
2018-07-03T03:51:26.570Z,18.72
2018-07-03T03:53:55.019Z,19.16
2018-07-03T03:56:23.320Z,19.24
2018-07-03T03:58:52.063Z,19.11
2018-07-03T04:01:20.606Z,19.19
2018-07-03T04:03:48.971Z,19.20
2018-07-03T04:06:17.373Z,19.33
2018-07-03T04:08:45.982Z,19.35
2018-07-03T04:11:14.823Z,19.46
2018-07-03T04:13:43.402Z,19.49
2018-07-03T04:16:11.648Z,19.62
2018-07-03T04:18:40.156Z,19.66
2018-07-03T04:21:08.543Z,19.53
2018-07-03T04:23:37.718Z,19.58
2018-07-03T04:26:06.632Z,19.61
2018-07-03T04:28:34.869Z,19.78
2018-07-03T04:31:03.662Z,19.55
2018-07-03T04:33:32.220Z,19.80
2018-07-03T04:36:00.876Z,19.88
2018-07-03T04:38:29.373Z,20.03
2018-07-03T04:40:58.011Z,20.00
2018-07-03T04:43:26.584Z,20.13
2018-07-03T04:45:55.289Z,20.07
2018-07-03T04:48:23.919Z,20.20
2018-07-03T04:50:52.322Z,20.23
2018-07-03T04:53:20.821Z,20.42
2018-07-03T04:55:49.309Z,20.47
2018-07-03T04:58:17.704Z,20.53
2018-07-03T05:00:46.264Z,20.59
2018-07-03T05:03:14.958Z,20.64
2018-07-03T05:05:43.416Z,20.57
2018-07-03T05:08:11.849Z,20.59
2018-07-03T05:10:40.473Z,20.73
2018-07-03T05:13:09.103Z,20.84
2018-07-03T05:15:37.655Z,20.91
2018-07-03T05:18:06.161Z,20.97
2018-07-03T05:20:34.835Z,21.07
2018-07-03T05:23:03.582Z,21.17
2018-07-03T05:25:32.200Z,21.31
2018-07-03T05:28:00.634Z,21.37
2018-07-03T05:30:29.076Z,21.26
2018-07-03T05:32:57.671Z,21.23
2018-07-03T05:35:26.141Z,21.25
2018-07-03T05:37:54.733Z,21.24
2018-07-03T05:40:23.204Z,21.25
2018-07-03T05:42:51.695Z,21.24
2018-07-03T05:45:20.267Z,21.23
2018-07-03T05:47:48.795Z,21.22
2018-07-03T05:50:17.237Z,21.07
2018-07-03T05:52:45.878Z,20.87
2018-07-03T05:55:14.400Z,20.98
2018-07-03T05:57:42.998Z,21.23
2018-07-03T06:00:11.535Z,21.44
2018-07-03T06:02:40.115Z,21.60
2018-07-03T06:05:08.572Z,21.54
2018-07-03T06:07:37.379Z,21.33
2018-07-03T06:10:06.239Z,21.53
2018-07-03T06:12:34.583Z,21.70
2018-07-03T06:15:03.363Z,21.79
2018-07-03T06:17:32.018Z,21.40
2018-07-03T06:20:00.496Z,21.53
2018-07-03T06:22:28.941Z,21.55
2018-07-03T06:24:57.206Z,21.79
2018-07-03T06:27:25.677Z,22.08
2018-07-03T06:29:54.324Z,22.05
2018-07-03T06:32:22.929Z,22.21
2018-07-03T06:34:51.812Z,22.44
2018-07-03T06:37:20.449Z,22.49
2018-07-03T06:39:48.892Z,22.60
2018-07-03T06:42:17.274Z,22.83
2018-07-03T06:44:51.490Z,22.97
2018-07-03T06:47:20.018Z,23.11
2018-07-03T06:49:48.431Z,23.08
2018-07-03T06:52:16.945Z,23.12
2018-07-03T06:54:46.352Z,22.86
2018-07-03T06:57:15.193Z,23.01
2018-07-03T06:59:43.709Z,23.24
2018-07-03T07:02:12.190Z,23.28
2018-07-03T07:04:40.801Z,23.48
2018-07-03T07:07:09.349Z,23.66
2018-07-03T07:09:37.961Z,23.73
2018-07-03T07:12:06.590Z,23.66
2018-07-03T07:14:35.084Z,23.67
2018-07-03T07:17:03.463Z,23.78
2018-07-03T07:19:32.035Z,23.86
2018-07-03T07:22:00.485Z,23.99
2018-07-03T07:24:28.957Z,24.09
2018-07-03T07:26:57.890Z,24.21
2018-07-03T07:29:26.384Z,24.32
2018-07-03T07:32:02.004Z,24.36
2018-07-03T07:34:30.875Z,24.46
2018-07-03T07:37:01.312Z,24.61
2018-07-03T07:39:31.731Z,24.64
2018-07-03T07:42:00.258Z,24.76
2018-07-03T07:44:28.956Z,24.79
2018-07-03T07:46:57.841Z,24.77
2018-07-03T07:49:26.526Z,24.84
2018-07-03T07:51:55.267Z,24.90
2018-07-03T07:54:23.862Z,25.08
2018-07-03T07:56:52.325Z,25.08
2018-07-03T07:59:21.244Z,25.15
2018-07-03T08:01:49.892Z,25.19
2018-07-03T08:04:18.441Z,25.30
2018-07-03T08:06:47.212Z,25.42
2018-07-03T08:09:15.739Z,25.43
2018-07-03T08:11:44.510Z,25.34
2018-07-03T08:14:13.032Z,25.43
2018-07-03T08:16:41.561Z,25.52
2018-07-03T08:19:10.549Z,25.67
2018-07-03T08:21:39.181Z,25.84
2018-07-03T08:24:07.864Z,25.84
2018-07-03T08:26:36.893Z,25.92
2018-07-03T08:29:05.742Z,25.81
2018-07-03T08:31:34.557Z,25.84
2018-07-03T08:34:03.267Z,25.74
2018-07-03T08:36:31.804Z,25.77
2018-07-03T08:39:00.396Z,25.76
2018-07-03T08:41:28.957Z,25.88
2018-07-03T08:43:58.082Z,25.93
2018-07-03T08:46:26.666Z,26.00
2018-07-03T08:48:55.255Z,26.05
2018-07-03T08:51:23.809Z,26.12
2018-07-03T08:53:52.310Z,26.11
2018-07-03T08:56:20.766Z,26.22
2018-07-03T08:58:50.293Z,26.34
2018-07-03T09:01:20.991Z,26.33
2018-07-03T09:03:49.836Z,26.41
2018-07-03T09:06:18.140Z,26.44
2018-07-03T09:08:46.831Z,26.57
2018-07-03T09:11:15.436Z,26.37
2018-07-03T09:13:43.878Z,26.37
2018-07-03T09:16:12.538Z,26.45
2018-07-03T09:18:41.084Z,26.50
2018-07-03T09:21:09.694Z,26.50
2018-07-03T09:23:38.332Z,26.53
2018-07-03T09:26:06.834Z,26.63
2018-07-03T09:28:35.278Z,26.67
2018-07-03T09:31:03.890Z,26.85
2018-07-03T09:33:32.400Z,26.66
2018-07-03T09:36:00.890Z,26.78
2018-07-03T09:38:29.798Z,26.73
2018-07-03T09:40:58.274Z,26.75
2018-07-03T09:43:27.275Z,26.75
2018-07-03T09:45:55.901Z,26.89
2018-07-03T09:48:24.450Z,26.92
2018-07-03T09:50:53.181Z,27.00
2018-07-03T09:53:22.001Z,27.07
2018-07-03T09:55:50.469Z,27.08
2018-07-03T09:58:18.976Z,27.17
2018-07-03T10:00:52.914Z,27.01
2018-07-03T10:03:21.552Z,26.93
2018-07-03T10:05:50.352Z,27.08
2018-07-03T10:08:18.823Z,27.08
2018-07-03T10:10:47.560Z,27.19
2018-07-03T10:13:15.992Z,27.30
2018-07-03T10:15:44.559Z,27.22
2018-07-03T10:18:13.346Z,27.18
2018-07-03T10:20:42.097Z,27.24
2018-07-03T10:23:10.553Z,27.25
2018-07-03T10:25:39.124Z,27.21
2018-07-03T10:28:07.704Z,27.23
2018-07-03T10:30:36.404Z,27.26
2018-07-03T10:33:05.130Z,27.34
2018-07-03T10:35:33.844Z,27.36
2018-07-03T10:38:02.600Z,27.37
2018-07-03T10:40:30.948Z,27.43
2018-07-03T10:42:59.376Z,27.46
2018-07-03T10:45:28.017Z,27.53
2018-07-03T10:47:56.562Z,27.48
2018-07-03T10:50:25.084Z,27.47
2018-07-03T10:52:54.109Z,27.55
2018-07-03T10:55:22.526Z,27.57
2018-07-03T10:57:50.933Z,27.57
2018-07-03T11:00:19.738Z,27.62
2018-07-03T11:02:48.319Z,27.56
2018-07-03T11:05:16.980Z,27.64
2018-07-03T11:07:45.723Z,27.66
2018-07-03T11:10:14.541Z,27.69
2018-07-03T11:12:42.955Z,27.76
2018-07-03T11:15:11.852Z,27.65
2018-07-03T11:17:40.387Z,27.58
2018-07-03T11:20:09.349Z,27.59
2018-07-03T11:22:37.951Z,27.65
2018-07-03T11:25:06.459Z,27.72
2018-07-03T11:27:34.926Z,27.82
2018-07-03T11:30:04.215Z,27.70
2018-07-03T11:32:33.110Z,27.77
2018-07-03T11:35:02.057Z,27.74
2018-07-03T11:37:30.617Z,27.80
2018-07-03T11:39:59.325Z,27.86
2018-07-03T11:42:27.720Z,27.76
2018-07-03T11:44:56.508Z,27.99
2018-07-03T11:47:25.501Z,27.86
2018-07-03T11:49:54.442Z,27.87
2018-07-03T11:52:28.708Z,27.81
2018-07-03T11:54:57.501Z,28.01
2018-07-03T11:57:25.936Z,27.92
2018-07-03T11:59:54.447Z,27.83
2018-07-03T12:02:23.038Z,27.87
2018-07-03T12:04:51.629Z,27.93
2018-07-03T12:07:19.929Z,28.17
2018-07-03T12:09:48.589Z,28.24
2018-07-03T12:12:17.411Z,28.28
2018-07-03T12:14:45.961Z,28.35
2018-07-03T12:17:14.539Z,28.30
2018-07-03T12:19:43.193Z,28.36
2018-07-03T12:22:11.740Z,28.46
2018-07-03T12:24:40.498Z,28.51
2018-07-03T12:27:08.943Z,28.46
2018-07-03T12:29:37.671Z,28.47
2018-07-03T12:32:06.586Z,28.49
2018-07-03T12:34:35.146Z,28.54
2018-07-03T12:37:03.694Z,28.49
2018-07-03T12:39:32.158Z,28.54
2018-07-03T12:42:00.898Z,28.55
2018-07-03T12:44:29.459Z,28.68
2018-07-03T12:46:58.177Z,28.84
2018-07-03T12:49:26.650Z,28.95
2018-07-03T12:51:55.320Z,28.96
2018-07-03T12:54:23.964Z,29.05
2018-07-03T12:56:52.560Z,29.01
2018-07-03T12:59:21.451Z,29.14
2018-07-03T13:01:49.943Z,29.30
2018-07-03T13:04:18.492Z,29.34
2018-07-03T13:06:46.919Z,29.47
2018-07-03T13:09:15.349Z,29.78
2018-07-03T13:11:43.828Z,29.96
2018-07-03T13:14:12.354Z,30.14
2018-07-03T13:16:40.868Z,30.32
2018-07-03T13:19:09.324Z,30.49
2018-07-03T13:21:37.836Z,30.81
2018-07-03T13:24:06.491Z,30.77
2018-07-03T13:26:35.100Z,30.82
2018-07-03T13:29:05.968Z,31.13
2018-07-03T13:31:34.478Z,31.40
2018-07-03T13:34:03.206Z,30.95
2018-07-03T13:36:31.680Z,30.96
2018-07-03T13:39:00.492Z,31.41
2018-07-03T13:41:29.224Z,31.79
2018-07-03T13:43:57.634Z,32.16
2018-07-03T13:46:26.812Z,32.28
2018-07-03T13:48:55.653Z,31.56
2018-07-03T13:51:24.650Z,31.20
2018-07-03T13:53:53.255Z,31.54
2018-07-03T13:56:21.709Z,31.97
2018-07-03T13:58:51.033Z,32.38
2018-07-03T14:01:19.598Z,32.51
2018-07-03T14:03:48.476Z,32.98
2018-07-03T14:06:17.183Z,33.44
2018-07-03T14:08:45.890Z,33.66
2018-07-03T14:11:14.701Z,33.90
2018-07-03T14:13:43.297Z,34.11
2018-07-03T14:16:11.887Z,34.18
2018-07-03T14:18:40.763Z,33.66
2018-07-03T14:21:09.627Z,33.80
2018-07-03T14:23:38.235Z,34.12
2018-07-03T14:26:06.868Z,34.23
2018-07-03T14:28:35.341Z,34.14
2018-07-03T14:31:03.921Z,34.41
2018-07-03T14:33:32.380Z,34.69
2018-07-03T14:36:00.842Z,34.32
2018-07-03T14:38:29.363Z,33.84
2018-07-03T14:40:57.968Z,33.01
2018-07-03T14:43:26.696Z,33.11
2018-07-03T14:45:55.116Z,33.43
2018-07-03T14:48:23.556Z,34.02
2018-07-03T14:50:52.165Z,34.57
2018-07-03T14:53:20.721Z,34.53
2018-07-03T14:55:49.302Z,34.86
2018-07-03T14:58:17.936Z,35.21
2018-07-03T15:00:46.705Z,35.53
2018-07-03T15:03:15.472Z,35.87
2018-07-03T15:05:44.164Z,36.07
2018-07-03T15:08:12.621Z,35.85
2018-07-03T15:10:41.129Z,35.79
2018-07-03T15:13:09.741Z,35.98
2018-07-03T15:15:38.544Z,36.24
2018-07-03T15:18:11.102Z,36.38
2018-07-03T15:20:40.117Z,36.24
2018-07-03T15:23:09.321Z,35.89
2018-07-03T15:25:38.035Z,36.19
2018-07-03T15:28:06.344Z,35.76
2018-07-03T15:30:35.033Z,35.49
2018-07-03T15:33:03.586Z,35.00
2018-07-03T15:35:32.193Z,34.40
2018-07-03T15:38:00.925Z,33.81
2018-07-03T15:40:29.569Z,33.27
2018-07-03T15:42:58.258Z,32.81
2018-07-03T15:45:27.007Z,32.50
2018-07-03T15:47:55.559Z,32.04
2018-07-03T15:50:24.349Z,31.31
2018-07-03T15:52:52.949Z,30.97
2018-07-03T15:55:21.289Z,30.82
2018-07-03T15:57:49.845Z,30.70
2018-07-03T16:00:18.359Z,30.69
2018-07-03T16:04:02.645Z,30.47
2018-07-03T16:06:54.797Z,30.27
2018-07-03T16:09:23.495Z,30.11
2018-07-03T16:11:52.275Z,29.99
2018-07-03T16:14:20.515Z,30.02
2018-07-03T16:16:49.239Z,29.94
2018-07-03T16:19:23.315Z,30.25
2018-07-03T16:21:51.824Z,30.20
2018-07-03T16:24:21.154Z,30.27
2018-07-03T16:26:49.685Z,30.16
2018-07-03T16:29:18.325Z,30.21
2018-07-03T16:31:46.892Z,30.07
2018-07-03T16:34:15.442Z,29.93
2018-07-03T16:36:44.199Z,29.76
2018-07-03T16:39:12.921Z,29.67
2018-07-03T16:41:41.567Z,29.73
2018-07-03T16:44:10.684Z,29.79
2018-07-03T16:46:39.576Z,29.71
2018-07-03T16:49:08.205Z,29.66
2018-07-03T16:51:36.587Z,29.66
2018-07-03T16:54:04.963Z,29.67
2018-07-03T16:56:33.288Z,29.67
2018-07-03T16:59:01.766Z,29.68
2018-07-03T17:01:30.456Z,29.54
2018-07-03T17:03:59.177Z,29.51
2018-07-03T17:06:27.807Z,29.58
2018-07-03T17:08:56.398Z,29.55
2018-07-03T17:11:25.041Z,29.40
2018-07-03T17:13:53.863Z,29.35
2018-07-03T17:16:22.214Z,29.34
2018-07-03T17:18:56.326Z,29.31
2018-07-03T17:21:24.964Z,29.18
2018-07-03T17:23:53.511Z,29.07
2018-07-03T17:26:22.015Z,29.12
2018-07-03T17:28:50.602Z,29.07
2018-07-03T17:31:19.307Z,29.07
2018-07-03T17:33:47.947Z,29.06
2018-07-03T17:36:16.571Z,29.39
2018-07-03T17:38:45.242Z,29.48
2018-07-03T17:41:30.685Z,29.55
2018-07-03T17:44:17.627Z,29.57
2018-07-03T17:46:46.124Z,29.45
2018-07-03T17:49:14.769Z,29.43
2018-07-03T17:51:43.793Z,29.46
2018-07-03T17:54:12.517Z,29.43
2018-07-03T17:56:41.046Z,29.29
2018-07-03T17:59:09.668Z,29.34
2018-07-03T18:01:38.123Z,29.28
2018-07-03T18:04:06.837Z,29.25
2018-07-03T18:06:35.711Z,29.10
2018-07-03T18:09:08.210Z,28.94
2018-07-03T18:11:36.742Z,28.89
2018-07-03T18:14:05.931Z,28.96
2018-07-03T18:16:34.755Z,29.13
2018-07-03T18:19:08.970Z,29.09
2018-07-03T18:21:37.692Z,29.09
2018-07-03T18:24:06.604Z,28.93
2018-07-03T18:26:35.203Z,28.97
2018-07-03T18:29:04.131Z,28.80
2018-07-03T18:31:33.592Z,28.84
2018-07-03T18:34:02.385Z,28.72
2018-07-03T18:36:30.780Z,28.77
2018-07-03T18:38:59.072Z,28.75
2018-07-03T18:41:27.736Z,28.62
2018-07-03T18:43:56.417Z,28.63
2018-07-03T18:46:25.080Z,28.40
2018-07-03T18:48:53.656Z,28.62
2018-07-03T18:51:22.572Z,28.60
2018-07-03T18:53:51.093Z,28.61
2018-07-03T18:56:19.689Z,28.37
2018-07-03T18:58:48.179Z,28.45
2018-07-03T19:01:16.718Z,28.46
2018-07-03T19:03:45.479Z,28.59
2018-07-03T19:06:13.981Z,28.65
2018-07-03T19:08:42.856Z,28.62
2018-07-03T19:11:11.635Z,28.43
2018-07-03T19:13:40.488Z,28.51
2018-07-03T19:16:09.164Z,28.52
2018-07-03T19:18:37.885Z,28.45
2018-07-03T19:21:06.605Z,28.32
2018-07-03T19:23:35.216Z,28.29
2018-07-03T19:26:03.821Z,28.21
2018-07-03T19:28:32.624Z,28.16
2018-07-03T19:31:01.136Z,28.10
2018-07-03T19:33:37.933Z,28.07
2018-07-03T19:36:06.570Z,27.96
2018-07-03T19:38:35.185Z,27.90
2018-07-03T19:41:04.111Z,27.93
2018-07-03T19:43:35.837Z,27.87
2018-07-03T19:46:05.081Z,27.71
2018-07-03T19:48:33.955Z,27.69
2018-07-03T19:51:02.225Z,27.68
2018-07-03T19:53:30.899Z,27.44
2018-07-03T19:55:59.980Z,27.34
2018-07-03T19:58:28.543Z,27.43
2018-07-03T20:00:57.144Z,27.33
2018-07-03T20:03:25.768Z,27.33
2018-07-03T20:05:54.278Z,27.26
2018-07-03T20:08:22.850Z,27.26
2018-07-03T20:10:51.674Z,27.13
2018-07-03T20:13:20.337Z,27.04
2018-07-03T20:15:49.205Z,26.86
2018-07-03T20:18:17.757Z,26.83
2018-07-03T20:20:46.391Z,26.65
2018-07-03T20:23:15.329Z,26.62
2018-07-03T20:25:43.825Z,26.55
2018-07-03T20:28:12.398Z,26.65
2018-07-03T20:30:41.074Z,26.64
2018-07-03T20:33:09.684Z,26.55
2018-07-03T20:35:38.379Z,26.54
2018-07-03T20:38:07.293Z,26.39
2018-07-03T20:41:04.151Z,26.37
2018-07-03T20:43:35.503Z,26.22
2018-07-03T20:46:04.429Z,26.40
2018-07-03T20:48:33.028Z,26.41
2018-07-03T20:51:01.708Z,26.35
2018-07-03T20:53:30.391Z,26.23
2018-07-03T20:55:59.094Z,26.30
2018-07-03T20:58:27.674Z,26.28
2018-07-03T21:00:56.212Z,26.26
2018-07-03T21:03:25.020Z,26.10
2018-07-03T21:05:53.877Z,26.02
2018-07-03T21:08:22.545Z,25.99
2018-07-03T21:10:51.017Z,26.08
2018-07-03T21:13:19.611Z,26.11
2018-07-03T21:15:48.282Z,26.04
2018-07-03T21:18:16.775Z,26.07
2018-07-03T21:20:45.464Z,25.87
2018-07-03T21:23:13.825Z,25.80
2018-07-03T21:25:42.429Z,25.74
2018-07-03T21:28:10.954Z,25.70
2018-07-03T21:30:39.613Z,25.54
2018-07-03T21:33:08.468Z,25.52
2018-07-03T21:35:37.158Z,25.46
2018-07-03T21:38:05.640Z,25.30
2018-07-03T21:40:34.301Z,25.33
2018-07-03T21:43:02.961Z,25.31
2018-07-03T21:45:31.479Z,25.29
2018-07-03T21:48:00.052Z,25.22
2018-07-03T21:50:28.722Z,25.23
2018-07-03T21:52:57.367Z,25.18
2018-07-03T21:55:25.792Z,25.13
2018-07-03T21:57:54.389Z,25.13
2018-07-03T22:00:36.229Z,25.06
2018-07-03T22:03:06.408Z,24.95
2018-07-03T22:05:35.593Z,24.96
2018-07-03T22:08:04.291Z,24.99
2018-07-03T22:10:33.313Z,25.03
2018-07-03T22:13:02.172Z,24.91
2018-07-03T22:15:30.805Z,24.84
2018-07-03T22:17:59.216Z,24.80
2018-07-03T22:20:27.860Z,24.68
2018-07-03T22:22:56.235Z,24.59
2018-07-03T22:25:24.570Z,24.58
2018-07-03T22:27:53.392Z,24.45
2018-07-03T22:30:21.924Z,24.34
2018-07-03T22:32:50.358Z,24.29
2018-07-03T22:35:18.937Z,24.30
2018-07-03T22:37:47.529Z,24.26
2018-07-03T22:40:16.012Z,24.25
2018-07-03T22:42:44.602Z,24.15
2018-07-03T22:45:13.272Z,24.13
2018-07-03T22:47:41.749Z,24.09
2018-07-03T22:50:10.332Z,23.99
2018-07-03T22:52:39.049Z,24.05
2018-07-03T22:55:07.412Z,24.05
2018-07-03T22:57:36.044Z,24.03
2018-07-03T23:00:05.355Z,23.98
2018-07-03T23:02:33.868Z,24.05
2018-07-03T23:05:02.683Z,23.98
2018-07-03T23:07:31.130Z,23.97
2018-07-03T23:09:59.800Z,23.88
2018-07-03T23:12:28.153Z,23.78
2018-07-03T23:14:57.017Z,23.84
2018-07-03T23:17:25.468Z,23.91
2018-07-03T23:19:53.907Z,23.74
2018-07-03T23:22:22.615Z,23.70
2018-07-03T23:24:51.258Z,23.71
2018-07-03T23:27:19.708Z,23.71
2018-07-03T23:29:48.283Z,23.61
2018-07-03T23:32:16.910Z,23.54
2018-07-03T23:34:45.473Z,23.56
2018-07-03T23:37:14.184Z,23.46
2018-07-03T23:39:42.560Z,23.42
2018-07-03T23:42:11.161Z,23.48
2018-07-03T23:44:39.668Z,23.57
2018-07-03T23:47:25.188Z,23.49
2018-07-03T23:50:10.721Z,23.43
2018-07-03T23:52:56.457Z,23.31
2018-07-03T23:55:41.940Z,23.28
2018-07-03T23:58:27.383Z,23.21
